Time;durP1;ratioP1;P1;durP2;ratioP2;P2;SDS_P1;SDS_P2;PMS_P1;PMS_P2;Temp;Humidity;BMP_temperature;BMP_pressure;BME280_temperature;BME280_humidity;BME280_pressure;Samples;Min_cycle;Max_cycle;Signal;HPM_P1;HPM_P2
2022/07/21 00:00:16;;;;;;;7.12;5.58;;;;;;;18.36;59.57;100733.52;1683524;85;25584;-68
2022/07/21 00:02:45;;;;;;;6.08;5.47;;;;;;;18.31;60.26;100737.30;1662328;85;26351;-68
2022/07/21 00:05:11;;;;;;;9.70;5.30;;;;;;;18.24;59.91;100733.00;1683301;85;25771;-68
2022/07/21 00:07:37;;;;;;;7.42;5.37;;;;;;;18.19;59.92;100735.41;1683428;85;25428;-68
2022/07/21 00:10:05;;;;;;;6.00;5.40;;;;;;;18.17;59.99;100730.86;1683390;84;25695;-68
2022/07/21 00:12:32;;;;;;;9.63;6.00;;;;;;;18.14;60.10;100728.82;1653070;84;25524;-68
2022/07/21 00:14:59;;;;;;;11.78;6.28;;;;;;;18.10;60.50;100723.25;1673631;85;27285;-68
2022/07/21 00:17:25;;;;;;;8.75;5.80;;;;;;;18.07;60.69;100719.05;1673593;85;25817;-68
2022/07/21 00:19:54;;;;;;;7.40;6.10;;;;;;;18.03;60.87;100716.22;1673619;85;25450;-68
2022/07/21 00:22:21;;;;;;;9.13;6.12;;;;;;;17.98;61.30;100716.47;1673675;85;26358;-68
2022/07/21 00:24:47;;;;;;;7.33;5.87;;;;;;;17.94;61.06;100712.04;1673665;85;25579;-68
2022/07/21 00:27:14;;;;;;;9.83;6.28;;;;;;;17.89;61.13;100715.26;1673655;85;29572;-69
2022/07/21 00:29:40;;;;;;;7.20;6.08;;;;;;;17.86;61.16;100715.10;1673550;85;25926;-70
2022/07/21 00:32:06;;;;;;;8.68;6.08;;;;;;;17.82;61.78;100729.27;1673710;85;25769;-70
2022/07/21 00:34:33;;;;;;;7.22;5.97;;;;;;;17.77;61.63;100732.25;1673651;85;25604;-70
2022/07/21 00:36:59;;;;;;;10.32;6.40;;;;;;;17.72;61.84;100734.65;1673617;85;25617;-68
2022/07/21 00:39:26;;;;;;;7.20;6.20;;;;;;;17.68;61.89;100744.12;1673611;85;27386;-68
2022/07/21 00:41:52;;;;;;;9.43;6.40;;;;;;;17.62;62.00;100751.55;1673516;85;25759;-68
2022/07/21 00:44:29;;;;;;;9.48;7.53;;;;;;;17.56;62.01;100745.52;1673583;85;25631;-68
2022/07/21 00:46:56;;;;;;;10.50;6.53;;;;;;;17.51;61.86;100746.55;1673585;85;25560;-68
2022/07/21 00:49:23;;;;;;;10.32;7.00;;;;;;;17.47;62.40;100749.77;1673621;85;25630;-68
2022/07/21 00:51:50;;;;;;;8.40;6.53;;;;;;;17.43;62.86;100744.73;1673565;85;28046;-68
2022/07/21 00:54:18;;;;;;;6.35;5.72;;;;;;;17.37;62.31;100743.40;1673556;85;25574;-68
2022/07/21 00:56:47;;;;;;;7.10;5.95;;;;;;;17.34;62.51;100746.81;1673594;85;25396;-68
2022/07/21 00:59:14;;;;;;;7.92;6.00;;;;;;;17.31;63.19;100747.50;1673552;85;25575;-67
2022/07/21 01:01:40;;;;;;;8.70;6.70;;;;;;;17.26;62.90;100748.52;1673802;85;25630;-70
2022/07/21 01:04:07;;;;;;;10.13;6.58;;;;;;;17.22;63.18;100750.94;1673650;85;28114;-67
2022/07/21 01:06:33;;;;;;;8.40;6.30;;;;;;;17.18;63.89;100751.61;1673489;85;25661;-67
2022/07/21 01:08:59;;;;;;;6.28;5.67;;;;;;;17.13;63.44;100750.47;1673601;85;25476;-67
2022/07/21 01:11:27;;;;;;;6.85;5.83;;;;;;;17.09;63.31;100755.02;1683814;83;26328;-67
2022/07/21 01:13:54;;;;;;;6.95;6.25;;;;;;;17.06;63.58;100754.36;1709462;84;25562;-67
2022/07/21 01:16:20;;;;;;;7.53;6.37;;;;;;;17.02;63.83;100753.42;1709412;84;28026;-67
2022/07/21 01:18:46;;;;;;;7.40;6.70;;;;;;;16.95;64.23;100753.20;1709386;84;25403;-67
2022/07/21 01:21:36;;;;;;;8.83;6.20;;;;;;;16.89;64.21;100755.92;1709440;84;25606;-67
2022/07/21 01:24:05;;;;;;;8.43;5.97;;;;;;;16.85;64.31;100762.63;1709401;83;25621;-67
2022/07/21 01:26:42;;;;;;;14.10;7.22;;;;;;;16.78;64.92;100763.16;1709557;84;27921;-67
2022/07/21 01:29:11;;;;;;;8.25;6.67;;;;;;;16.74;64.47;100769.66;1709529;84;28153;-68
2022/07/21 01:31:40;;;;;;;11.18;7.22;;;;;;;16.71;64.53;100768.97;1709549;84;25656;-69
2022/07/21 01:34:07;;;;;;;;;;;;;;;16.67;64.55;100776.23;1711975;84;25637;-69
2022/07/21 01:36:33;;;;;;;9.30;6.37;;;;;;;16.62;65.37;100780.78;1709402;84;26563;-69
2022/07/21 01:41:44;;;;;;;9.50;6.45;;;;;;;16.53;65.51;100775.17;1709476;84;27462;-67
2022/07/21 01:44:13;;;;;;;7.90;6.92;;;;;;;16.48;65.61;100774.84;1709334;84;25600;-68
2022/07/21 01:46:47;;;;;;;8.75;7.35;;;;;;;16.46;65.53;100777.09;1709514;84;25657;-68
2022/07/21 01:49:16;;;;;;;10.48;6.85;;;;;;;16.44;65.41;100776.06;1709457;84;26441;-68
2022/07/21 01:51:42;;;;;;;10.28;6.28;;;;;;;16.40;65.67;100776.52;1709509;84;25648;-68
2022/07/21 01:54:10;;;;;;;8.28;6.83;;;;;;;16.38;65.61;100778.79;1709381;84;27393;-68
2022/07/21 01:56:38;;;;;;;9.78;7.10;;;;;;;16.34;65.97;100786.03;1709323;84;25400;-68
2022/07/21 01:59:06;;;;;;;6.83;6.08;;;;;;;16.32;66.16;100787.52;1709486;84;25588;-67
2022/07/21 02:01:33;;;;;;;8.90;6.45;;;;;;;16.27;66.36;100793.98;1709415;83;25575;-68
2022/07/21 02:04:03;;;;;;;9.60;7.47;;;;;;;16.25;66.23;100798.41;1709416;84;25641;-68
2022/07/21 02:06:30;;;;;;;9.88;6.95;;;;;;;16.23;66.33;100796.58;1709393;83;27420;-68
2022/07/21 02:08:57;;;;;;;7.90;6.35;;;;;;;16.18;66.85;100790.55;1709316;84;25746;-68
2022/07/21 02:11:23;;;;;;;11.63;6.60;;;;;;;16.15;66.63;100789.84;1705723;84;25680;-68
2022/07/21 02:13:49;;;;;;;9.38;7.10;;;;;;;16.13;67.05;100783.35;1683367;84;25859;-68
2022/07/21 02:16:15;;;;;;;7.42;6.58;;;;;;;16.11;66.94;100786.98;1683382;84;25605;-68
2022/07/21 02:18:43;;;;;;;9.45;6.75;;;;;;;16.09;67.01;100781.07;1683308;85;27399;-68
2022/07/21 02:21:10;;;;;;;8.48;6.80;;;;;;;16.08;67.06;100786.86;1683249;85;25665;-68
2022/07/21 02:23:36;;;;;;;9.55;6.67;;;;;;;16.06;67.02;100781.73;1683445;85;25397;-68
2022/07/21 02:26:03;;;;;;;8.03;6.75;;;;;;;16.05;67.46;100778.76;1683333;84;25697;-68
2022/07/21 02:28:29;;;;;;;9.18;6.92;;;;;;;16.04;67.48;100779.91;1683343;84;25456;-68
2022/07/21 02:30:56;;;;;;;8.43;6.40;;;;;;;16.03;67.60;100785.91;1683313;85;27263;-69
2022/07/21 02:33:22;;;;;;;8.30;6.58;;;;;;;16.02;67.71;100789.79;1683236;84;25401;-69
2022/07/21 02:35:48;;;;;;;8.48;6.58;;;;;;;16.00;67.89;100792.61;1683334;85;25685;-69
2022/07/21 02:38:15;;;;;;;9.93;7.00;;;;;;;15.96;67.77;100787.02;1683245;85;26232;-69
2022/07/21 02:40:42;;;;;;;10.15;7.00;;;;;;;15.96;67.72;100790.32;1683356;85;25465;-69
2022/07/21 02:43:08;;;;;;;7.17;6.20;;;;;;;15.95;67.99;100794.17;1683457;83;27276;-69
2022/07/21 02:45:36;;;;;;;12.45;6.97;;;;;;;15.92;67.79;100795.65;1683293;84;25695;-69
2022/07/21 02:48:07;;;;;;;8.25;6.47;;;;;;;15.91;67.88;100798.70;1683312;85;25569;-69
2022/07/21 02:50:37;;;;;;;8.78;5.92;;;;;;;15.89;68.29;100795.52;1683327;85;25695;-69
2022/07/21 02:53:11;;;;;;;8.25;6.50;;;;;;;15.87;68.48;100794.48;1683343;85;25391;-67
2022/07/21 02:55:38;;;;;;;8.50;6.60;;;;;;;15.88;68.56;100798.80;1682982;85;28129;-67
2022/07/21 02:58:15;;;;;;;8.68;6.47;;;;;;;15.85;68.28;100794.81;1683265;85;25785;-67
2022/07/21 03:00:46;;;;;;;9.23;6.70;;;;;;;15.84;68.62;100789.11;1683382;85;25393;-69
2022/07/21 03:03:12;;;;;;;8.53;6.72;;;;;;;15.82;68.48;100780.47;1683295;85;25679;-69
2022/07/21 03:05:39;;;;;;;8.40;6.75;;;;;;;15.82;68.70;100784.56;1683327;84;25558;-69
2022/07/21 03:08:07;;;;;;;8.25;6.50;;;;;;;15.80;68.68;100777.28;1683335;85;28131;-69
2022/07/21 03:10:34;;;;;;;12.00;7.10;;;;;;;15.80;69.18;100775.10;1683221;85;25573;-69
2022/07/21 03:13:00;;;;;;;7.28;6.30;;;;;;;15.79;69.07;100771.58;1683265;83;25665;-67
2022/07/21 03:15:27;;;;;;;14.40;9.60;;;;;;;15.78;69.61;100771.91;1683272;84;26347;-67
2022/07/21 03:17:55;;;;;;;13.43;8.20;;;;;;;15.77;69.82;100762.16;1683366;85;25388;-67
2022/07/21 03:20:31;;;;;;;25.75;11.70;;;;;;;15.77;70.27;100760.22;1682547;85;28114;-67
2022/07/21 03:22:58;;;;;;;21.82;9.60;;;;;;;15.80;69.99;100767.73;1683455;85;26016;-68
2022/07/21 03:25:25;;;;;;;24.52;10.03;;;;;;;15.81;69.99;100766.59;1683481;84;25488;-68
2022/07/21 03:27:52;;;;;;;27.00;11.50;;;;;;;15.84;70.18;100770.59;1683417;85;25692;-67
2022/07/21 03:30:21;;;;;;;17.80;8.45;;;;;;;15.86;70.41;100771.05;1683488;85;25587;-69
2022/07/21 03:32:49;;;;;;;17.85;8.93;;;;;;;15.90;70.46;100772.55;1683466;85;27319;-69
2022/07/21 03:35:16;;;;;;;23.22;11.25;;;;;;;15.93;70.55;100765.07;1683359;85;25442;-67
2022/07/21 03:37:53;;;;;;;10.45;7.25;;;;;;;15.96;70.48;100769.28;1683449;84;25630;-67
2022/07/21 03:40:24;;;;;;;10.75;7.33;;;;;;;16.00;70.46;100770.78;1682099;85;25623;-67
2022/07/21 03:42:58;;;;;;;11.25;7.20;;;;;;;16.00;70.41;100774.30;1683502;84;25647;-68
2022/07/21 03:45:26;;;;;;;10.60;7.60;;;;;;;16.02;70.63;100782.97;1683468;85;27317;-68
2022/07/21 03:47:52;;;;;;;10.75;7.28;;;;;;;16.06;70.76;100783.89;1683342;85;25444;-68
2022/07/21 03:50:20;;;;;;;9.63;7.35;;;;;;;16.11;70.72;100781.53;1683456;84;25613;-68
2022/07/21 03:52:47;;;;;;;10.13;7.50;;;;;;;16.17;70.82;100785.63;1683370;85;25568;-68
2022/07/21 03:55:17;;;;;;;13.80;6.92;;;;;;;16.21;71.01;100783.84;1683486;83;25468;-68
2022/07/21 03:57:49;;;;;;;;;;;;;;;16.25;71.21;100786.13;1685928;85;26928;-68
2022/07/21 04:00:24;;;;;;;8.40;6.95;;;;;;;16.32;71.34;100788.89;1683309;85;25776;-70
2022/07/21 04:02:51;;;;;;;9.80;7.58;;;;;;;16.35;71.15;100785.49;1683456;85;25408;-69
2022/07/21 04:05:19;;;;;;;9.10;6.70;;;;;;;16.38;71.03;100788.34;1683417;84;25697;-69
2022/07/21 04:07:48;;;;;;;9.85;7.20;;;;;;;16.44;71.14;100782.09;1683419;85;25553;-68
2022/07/21 04:10:19;;;;;;;9.15;7.60;;;;;;;16.49;71.15;100777.00;1683526;85;27382;-68
2022/07/21 04:12:46;;;;;;;8.75;6.87;;;;;;;16.55;71.13;100783.83;1693721;83;25415;-68
2022/07/21 04:15:13;;;;;;;9.38;7.00;;;;;;;16.59;71.17;100782.82;1709489;84;25561;-67
2022/07/21 04:17:40;;;;;;;11.20;7.50;;;;;;;16.66;71.30;100777.38;1709442;84;25619;-67
2022/07/21 04:20:09;;;;;;;9.38;7.17;;;;;;;16.72;71.18;100778.74;1709491;84;25582;-67
2022/07/21 04:22:36;;;;;;;8.85;6.87;;;;;;;16.77;71.35;100776.61;1709613;84;27322;-67
2022/07/21 04:25:06;;;;;;;9.43;6.80;;;;;;;16.87;71.42;100781.42;1709378;84;25634;-67
2022/07/21 04:27:34;;;;;;;7.70;6.12;;;;;;;16.93;71.31;100787.70;1709558;84;25424;-67
2022/07/21 04:30:02;;;;;;;7.50;6.17;;;;;;;17.02;70.98;100793.05;1709459;84;26344;-70
2022/07/21 04:32:28;;;;;;;8.90;6.42;;;;;;;17.10;70.89;100792.15;1709457;84;25574;-69
2022/07/21 04:34:54;;;;;;;8.10;6.58;;;;;;;17.20;70.80;100790.91;1709441;84;28139;-69
2022/07/21 04:37:21;;;;;;;7.03;5.80;;;;;;;17.30;70.61;100789.66;1709390;84;25498;-68
2022/07/21 04:39:49;;;;;;;8.85;6.12;;;;;;;17.41;70.36;100793.52;1709456;84;25434;-67
2022/07/21 04:42:16;;;;;;;7.45;5.80;;;;;;;17.51;70.21;100801.83;1709414;84;25463;-67
2022/07/21 04:44:42;;;;;;;20.82;5.87;;;;;;;17.59;69.96;100800.09;1709468;84;25423;-67
2022/07/21 04:47:09;;;;;;;8.35;5.95;;;;;;;17.70;69.92;100798.48;1709460;84;27394;-68
2022/07/21 04:49:35;;;;;;;9.25;6.00;;;;;;;17.80;69.76;100795.27;1709380;83;25560;-67
2022/07/21 04:52:01;;;;;;;7.90;5.55;;;;;;;17.91;69.41;100796.98;1709420;84;25608;-67
2022/07/21 04:54:27;;;;;;;8.60;5.28;;;;;;;18.03;69.41;100797.52;1709407;83;25705;-67
2022/07/21 04:56:53;;;;;;;5.97;5.37;;;;;;;18.14;69.23;100789.05;1709468;84;25429;-67
2022/07/21 04:59:20;;;;;;;8.88;5.22;;;;;;;18.26;68.79;100794.46;1709438;84;27395;-69
2022/07/21 05:01:46;;;;;;;6.65;5.03;;;;;;;18.40;68.58;100800.11;1709327;84;25452;-69
2022/07/21 05:04:12;;;;;;;6.47;4.47;;;;;;;18.53;67.93;100800.86;1709437;84;25563;-69
2022/07/21 05:06:38;;;;;;;7.25;4.20;;;;;;;18.66;67.29;100799.63;1709416;84;25709;-69
2022/07/21 05:09:04;;;;;;;4.28;3.75;;;;;;;18.79;66.86;100799.77;1709469;84;25600;-70
2022/07/21 05:11:30;;;;;;;7.40;4.10;;;;;;;18.93;66.04;100796.63;1709438;84;27340;-69
2022/07/21 05:13:57;;;;;;;9.00;3.75;;;;;;;19.06;65.62;100791.86;1709298;83;25839;-69
2022/07/21 05:16:24;;;;;;;7.90;4.08;;;;;;;19.18;64.79;100790.39;1709446;84;25573;-69
2022/07/21 05:18:50;;;;;;;5.17;3.60;;;;;;;19.30;64.55;100783.22;1709406;84;25667;-69
2022/07/21 05:21:16;;;;;;;5.62;3.42;;;;;;;19.44;64.26;100781.38;1709437;84;25440;-69
2022/07/21 05:23:45;;;;;;;9.18;3.33;;;;;;;19.54;63.46;100778.86;1709431;84;27326;-69
2022/07/21 05:26:12;;;;;;;6.35;3.10;;;;;;;19.68;62.42;100780.33;1709584;84;25661;-69
2022/07/21 05:28:40;;;;;;;5.65;3.50;;;;;;;19.81;61.99;100783.78;1709439;84;25497;-69
2022/07/21 05:31:08;;;;;;;4.80;3.17;;;;;;;19.96;61.86;100782.92;1709473;84;25624;-69
2022/07/21 05:33:36;;;;;;;5.03;3.22;;;;;;;20.08;61.27;100785.52;1709393;84;25630;-69
2022/07/21 05:36:04;;;;;;;5.42;3.02;;;;;;;20.20;60.60;100785.95;1709429;84;27325;-69
2022/07/21 05:38:30;;;;;;;5.70;2.95;;;;;;;20.34;60.21;100790.92;1709316;84;25592;-69
2022/07/21 05:40:59;;;;;;;6.25;2.80;;;;;;;20.47;58.78;100789.61;1709382;83;25611;-69
2022/07/21 05:43:27;;;;;;;2.90;2.50;;;;;;;20.60;58.48;100790.24;1709475;84;25639;-69
2022/07/21 05:45:53;;;;;;;5.62;3.15;;;;;;;20.75;58.32;100787.17;1709445;84;25466;-69
2022/07/21 05:48:19;;;;;;;5.87;3.30;;;;;;;20.86;57.88;100780.50;1709419;83;27303;-69
2022/07/21 05:50:46;;;;;;;7.78;3.05;;;;;;;21.01;57.08;100780.13;1709312;84;25618;-69
2022/07/21 05:53:12;;;;;;;4.55;2.80;;;;;;;21.14;56.67;100780.16;1709373;84;25395;-69
2022/07/21 05:55:39;;;;;;;3.85;2.72;;;;;;;21.29;55.89;100781.77;1709361;84;26291;-69
2022/07/21 05:58:05;;;;;;;4.20;2.62;;;;;;;21.38;55.70;100779.53;1709439;84;25482;-69
2022/07/21 06:00:31;;;;;;;3.42;2.87;;;;;;;21.52;55.72;100786.66;1709451;84;27211;-69
2022/07/21 06:02:58;;;;;;;5.12;3.25;;;;;;;21.67;55.28;100786.84;1709343;84;25549;-68
2022/07/21 06:05:24;;;;;;;5.00;2.77;;;;;;;21.79;54.61;100786.04;1709408;84;25536;-68
2022/07/21 06:07:50;;;;;;;4.03;2.75;;;;;;;21.93;54.10;100791.50;1709341;84;25592;-68
2022/07/21 06:10:16;;;;;;;3.72;2.70;;;;;;;22.04;53.30;100791.64;1709412;84;25609;-68
2022/07/21 06:12:44;;;;;;;5.35;2.85;;;;;;;22.14;53.30;100786.84;1706891;84;27359;-68
2022/07/21 06:15:13;;;;;;;3.80;2.58;;;;;;;22.26;52.97;100786.58;1683286;84;25719;-68
2022/07/21 06:17:44;;;;;;;3.72;2.30;;;;;;;22.40;52.50;100785.19;1683341;85;25502;-68
2022/07/21 06:20:12;;;;;;;2.67;2.42;;;;;;;22.54;51.71;100775.67;1683336;85;25613;-68
2022/07/21 06:22:39;;;;;;;7.85;2.30;;;;;;;22.67;51.47;100778.95;1683369;85;25577;-68
2022/07/21 06:25:07;;;;;;;7.00;2.45;;;;;;;22.79;51.11;100766.25;1683364;84;28108;-68
2022/07/21 06:27:33;;;;;;;4.72;2.20;;;;;;;22.96;50.56;100778.61;1683264;83;25580;-68
2022/07/21 06:30:00;;;;;;;4.53;2.20;;;;;;;23.09;50.21;100771.65;1683390;84;25568;-70
2022/07/21 06:32:27;;;;;;;4.58;2.50;;;;;;;23.24;49.89;100768.98;1683288;85;25686;-69
2022/07/21 06:34:53;;;;;;;3.00;2.05;;;;;;;23.41;49.81;100763.37;1683377;83;25644;-68
2022/07/21 06:37:19;;;;;;;2.20;2.00;;;;;;;23.61;49.11;100764.66;1683391;85;27563;-68
2022/07/21 06:39:45;;;;;;;3.05;2.08;;;;;;;23.75;48.14;100763.15;1683243;85;25456;-68
2022/07/21 06:42:15;;;;;;;2.12;1.85;;;;;;;23.90;48.29;100764.03;1683338;85;25527;-68
2022/07/21 06:44:41;;;;;;;4.15;1.87;;;;;;;24.13;48.47;100759.59;1683327;84;25767;-68
2022/07/21 06:47:07;;;;;;;2.17;1.92;;;;;;;24.36;47.71;100757.84;1683377;84;25461;-68
2022/07/21 06:49:33;;;;;;;2.67;1.85;;;;;;;24.56;46.97;100753.55;1683355;84;27417;-68
2022/07/21 06:52:00;;;;;;;2.62;1.75;;;;;;;24.74;46.55;100748.62;1683228;85;25440;-68
2022/07/21 06:54:27;;;;;;;3.60;2.12;;;;;;;24.95;46.99;100756.92;1683574;85;25431;-68
2022/07/21 06:56:53;;;;;;;4.80;2.22;;;;;;;25.23;46.78;100751.75;1683398;85;25600;-68
2022/07/21 06:59:19;;;;;;;3.47;1.57;;;;;;;25.47;45.76;100756.48;1683538;84;25547;-69
2022/07/21 07:01:46;;;;;;;3.67;2.00;;;;;;;25.64;44.24;100760.95;1683546;84;27320;-69
2022/07/21 07:04:13;;;;;;;3.52;1.50;;;;;;;25.70;43.94;100761.52;1683417;85;25456;-69
2022/07/21 07:06:39;;;;;;;5.25;1.50;;;;;;;25.86;44.01;100759.70;1683511;84;25389;-69
2022/07/21 07:09:05;;;;;;;2.22;1.70;;;;;;;26.11;43.51;100758.80;1683407;85;25875;-69
2022/07/21 07:11:34;;;;;;;1.98;1.70;;;;;;;26.37;43.36;100755.28;1683612;84;25594;-69
2022/07/21 07:14:00;;;;;;;1.92;1.65;;;;;;;26.50;41.12;100755.59;1695745;83;27310;-69
2022/07/21 07:16:26;;;;;;;2.67;1.77;;;;;;;26.52;41.17;100759.52;1709942;83;25637;-69
2022/07/21 07:18:53;;;;;;;4.50;1.72;;;;;;;26.62;41.30;100764.23;1710041;83;25408;-69
2022/07/21 07:21:19;;;;;;;4.95;1.67;;;;;;;26.73;41.53;100765.55;1710074;83;27763;-69
2022/07/21 07:23:45;;;;;;;1.87;1.50;;;;;;;26.95;41.66;100759.22;1710190;83;25458;-69
2022/07/21 07:26:11;;;;;;;3.83;1.60;;;;;;;27.23;41.17;100760.75;1710012;83;27401;-69
2022/07/21 07:28:38;;;;;;;7.17;1.57;;;;;;;27.47;40.74;100768.65;1709908;83;25615;-69
2022/07/21 07:31:04;;;;;;;4.58;2.05;;;;;;;27.76;40.20;100780.21;1710076;83;25621;-69
2022/07/21 07:33:30;;;;;;;2.02;1.30;;;;;;;28.02;39.53;100770.98;1709965;83;25699;-68
2022/07/21 07:35:57;;;;;;;4.35;1.75;;;;;;;28.25;38.49;100770.28;1710000;83;25691;-68
2022/07/21 07:38:23;;;;;;;3.62;1.82;;;;;;;28.31;38.12;100783.27;1709989;83;28290;-69
2022/07/21 07:40:49;;;;;;;3.15;1.60;;;;;;;28.40;38.09;100783.34;1709905;83;25640;-68
2022/07/21 07:43:16;;;;;;;2.42;1.50;;;;;;;28.58;37.21;100793.64;1709997;83;25707;-68
2022/07/21 07:45:42;;;;;;;3.85;1.60;;;;;;;28.69;37.74;100778.19;1709986;83;25577;-68
2022/07/21 07:48:08;;;;;;;1.82;1.55;;;;;;;28.76;36.72;100772.49;1710041;83;25566;-68
2022/07/21 07:50:34;;;;;;;3.52;1.22;;;;;;;28.92;37.30;100781.56;1710065;83;28233;-68
2022/07/21 07:53:00;;;;;;;8.88;2.00;;;;;;;29.23;36.90;100788.41;1709853;83;25558;-68
2022/07/21 07:55:27;;;;;;;3.92;1.92;;;;;;;29.52;37.10;100785.08;1710021;83;25497;-69
2022/07/21 07:57:53;;;;;;;8.40;5.12;;;;;;;29.91;37.10;100782.13;1709978;83;26393;-68
2022/07/21 08:00:22;;;;;;;6.42;1.95;;;;;;;30.31;37.05;100778.66;1710029;83;25631;-70
2022/07/21 08:02:49;;;;;;;1.30;1.10;;;;;;;30.78;36.44;100778.95;1710122;83;27483;-68
2022/07/21 08:05:15;;;;;;;2.67;1.50;;;;;;;31.24;35.43;100775.58;1709970;83;25554;-69
2022/07/21 08:07:41;;;;;;;1.40;1.27;;;;;;;31.58;34.61;100782.67;1710006;83;25645;-69
2022/07/21 08:10:12;;;;;;;4.90;1.57;;;;;;;31.78;33.70;100788.72;1709933;83;25685;-69
2022/07/21 08:12:39;;;;;;;5.50;1.47;;;;;;;31.83;32.45;100776.98;1710009;83;25644;-68
2022/07/21 08:15:07;;;;;;;4.55;1.42;;;;;;;32.03;32.79;100774.77;1709499;83;27342;-68
2022/07/21 08:17:34;;;;;;;7.70;1.42;;;;;;;32.03;32.79;100774.77;1709659;83;25458;-68
2022/07/21 08:20:00;;;;;;;4.37;1.27;;;;;;;32.25;32.54;100777.54;1709475;84;25454;-68
2022/07/21 08:22:26;;;;;;;1.70;1.37;;;;;;;32.34;32.22;100770.05;1709444;84;25606;-68
2022/07/21 08:24:52;;;;;;;5.97;1.40;;;;;;;32.45;30.81;100768.29;1709508;84;25643;-68
2022/07/21 08:27:18;;;;;;;3.33;1.27;;;;;;;32.58;31.23;100769.06;1709484;83;28046;-68
2022/07/21 08:29:46;;;;;;;1.98;1.32;;;;;;;32.75;31.05;100763.36;1709419;84;25534;-68
2022/07/21 08:32:12;;;;;;;3.15;1.05;;;;;;;32.93;30.24;100761.33;1709509;84;25633;-68
2022/07/21 08:34:39;;;;;;;2.72;1.30;;;;;;;32.97;29.47;100755.00;1709399;84;26089;-69
2022/07/21 08:37:05;;;;;;;6.85;1.42;;;;;;;33.23;29.11;100762.70;1709453;84;25564;-68
2022/07/21 08:39:31;;;;;;;2.20;1.32;;;;;;;33.10;28.56;100760.55;1709475;84;27329;-69
2022/07/21 08:41:59;;;;;;;3.98;1.27;;;;;;;33.30;28.84;100753.27;1709372;84;25746;-68
2022/07/21 08:44:25;;;;;;;1.77;1.32;;;;;;;33.65;29.02;100754.59;1709605;84;26559;-69
2022/07/21 08:46:52;;;;;;;5.03;1.40;;;;;;;33.93;28.02;100747.12;1709392;84;25698;-68
2022/07/21 08:49:22;;;;;;;3.52;1.50;;;;;;;34.03;28.22;100747.95;1709525;84;25486;-68
2022/07/21 08:51:51;;;;;;;1.95;1.37;;;;;;;34.39;28.06;100747.94;1709215;83;28036;-68
2022/07/21 08:54:20;;;;;;;3.20;1.55;;;;;;;34.82;27.90;100749.61;1709346;84;25629;-68
2022/07/21 08:56:50;;;;;;;2.37;1.45;;;;;;;35.22;27.57;100747.30;1709447;84;25585;-68
2022/07/21 08:59:16;;;;;;;2.60;1.90;;;;;;;35.51;27.17;100746.79;1709419;84;26353;-68
2022/07/21 09:01:43;;;;;;;5.30;1.40;;;;;;;35.81;27.14;100746.42;1709531;84;25635;-69
2022/07/21 09:04:28;;;;;;;2.58;1.40;;;;;;;36.03;26.87;100749.61;1709523;84;27412;-69
2022/07/21 09:07:02;;;;;;;3.35;1.35;;;;;;;36.11;26.33;100748.65;1709356;83;25392;-69
2022/07/21 09:09:30;;;;;;;2.25;1.25;;;;;;;36.37;25.83;100756.05;1709487;84;25576;-69
2022/07/21 09:11:57;;;;;;;;;;;;;;;36.39;25.70;100754.95;1711923;84;25666;-70
2022/07/21 09:14:28;;;;;;;5.15;1.52;;;;;;;36.55;24.53;100758.75;1701204;83;25564;-69
2022/07/21 09:16:59;;;;;;;3.42;1.37;;;;;;;36.40;24.78;100745.23;1683400;85;27378;-68
2022/07/21 09:19:38;;;;;;;3.00;1.32;;;;;;;36.45;24.74;100740.35;1683316;85;25620;-68
2022/07/21 09:22:08;;;;;;;5.45;1.57;;;;;;;36.68;24.64;100737.39;1683420;85;25569;-68
2022/07/21 09:24:40;;;;;;;6.75;1.72;;;;;;;36.97;24.44;100744.41;1682908;85;26169;-68
2022/07/21 09:27:32;;;;;;;2.98;1.20;;;;;;;37.42;24.25;100741.66;1905465;74;26083;-68
2022/07/21 09:30:02;;;;;;;2.85;1.37;;;;;;;37.72;24.32;100740.41;1859964;77;25400;-68
2022/07/21 09:32:37;;;;;;;4.67;1.50;;;;;;;38.22;23.97;100734.63;1859959;76;27448;-69
2022/07/21 09:35:14;;;;;;;2.67;1.52;;;;;;;38.67;23.80;100726.78;1859860;77;25270;-70
2022/07/21 09:38:50;;;;;;;5.75;1.50;;;;;;;39.41;22.88;100730.52;1839611;77;26144;-68
2022/07/21 09:41:21;;;;;;;3.52;2.02;;;;;;;39.60;22.42;100728.13;1746177;82;25447;-68
2022/07/21 09:43:50;;;;;;;2.55;2.00;;;;;;;39.79;22.13;100729.17;1778812;80;28469;-70
2022/07/21 09:46:29;;;;;;;2.55;1.30;;;;;;;39.88;21.93;100723.95;1747793;82;25612;-70
2022/07/21 09:49:01;;;;;;;4.00;1.82;;;;;;;39.89;21.57;100728.34;1747883;82;25573;-70
2022/07/21 09:51:31;;;;;;;4.70;1.95;;;;;;;39.76;21.39;100723.89;1747828;82;25556;-70
2022/07/21 09:54:08;;;;;;;2.87;1.90;;;;;;;39.45;21.57;100720.38;1747616;82;25381;-69
2022/07/21 09:56:38;;;;;;;2.10;1.90;;;;;;;39.18;21.53;100715.41;1747886;82;27511;-69
2022/07/21 09:59:08;;;;;;;6.30;1.80;;;;;;;38.89;22.13;100714.95;1747432;82;25629;-69
2022/07/21 10:01:36;;;;;;;9.15;2.75;;;;;;;39.09;22.58;100707.72;1747912;82;25629;-70
2022/07/21 10:04:05;;;;;;;2.77;1.82;;;;;;;39.56;22.69;100707.02;1748003;82;25614;-69
2022/07/21 10:06:36;;;;;;;2.15;2.00;;;;;;;40.02;22.50;100708.14;1748005;82;25619;-70
2022/07/21 10:09:07;;;;;;;2.30;1.90;;;;;;;40.28;21.14;100705.94;1747764;82;27523;-70
2022/07/21 10:11:34;;;;;;;8.55;2.47;;;;;;;40.10;21.53;100708.56;1747923;82;25873;-70
2022/07/21 10:14:03;;;;;;;4.58;2.30;;;;;;;39.88;21.44;100699.89;1747996;82;25182;-70
2022/07/21 10:16:29;;;;;;;4.22;2.17;;;;;;;39.93;21.62;100692.89;1747756;82;25565;-70
2022/07/21 10:19:34;;;;;;;2.30;1.72;;;;;;;40.17;21.55;100695.20;1747883;82;25258;-70
2022/07/21 10:22:42;;;;;;;6.00;2.40;;;;;;;40.29;21.31;100692.57;1747771;82;28242;-69
2022/07/21 10:25:09;;;;;;;4.40;1.90;;;;;;;40.32;20.93;100700.03;1738179;82;25554;-69
2022/07/21 10:27:35;;;;;;;5.10;2.42;;;;;;;39.87;20.79;100689.86;1747876;81;25603;-69
2022/07/21 10:30:08;;;;;;;6.80;1.90;;;;;;;39.73;20.95;100690.93;1747783;82;25546;-69
2022/07/21 10:32:39;;;;;;;3.00;2.08;;;;;;;39.43;21.05;100690.41;1747891;81;25451;-69
2022/07/21 10:35:28;;;;;;;4.65;1.92;;;;;;;39.56;21.20;100692.22;1716232;82;27728;-69
2022/07/21 10:38:01;;;;;;;4.92;2.10;;;;;;;39.85;21.00;100684.70;1743614;81;25435;-69
2022/07/21 10:40:33;;;;;;;4.42;1.98;;;;;;;40.10;21.07;100686.53;1741988;82;25615;-69
2022/07/21 10:43:05;;;;;;;3.00;2.12;;;;;;;40.33;20.47;100691.03;1741826;82;25908;-69
2022/07/21 10:45:42;;;;;;;7.15;1.90;;;;;;;39.96;20.53;100682.59;1742010;82;25610;-69
2022/07/21 10:48:31;;;;;;;4.27;2.63;;;;;;;39.92;20.33;100676.38;1742135;82;27538;-69
2022/07/21 10:50:59;;;;;;;2.10;1.90;;;;;;;39.72;20.58;100673.03;1730938;82;25317;-69
2022/07/21 10:53:25;;;;;;;;;;;;;;;39.88;20.84;100670.95;1742944;82;25474;-69
2022/07/21 10:55:54;;;;;;;3.95;2.20;;;;;;;40.15;20.77;100673.84;1741517;82;25895;-69
2022/07/21 10:58:41;;;;;;;3.80;1.82;;;;;;;39.86;20.03;100678.39;1741581;82;25419;-69
2022/07/21 11:01:24;;;;;;;4.17;1.90;;;;;;;39.49;20.55;100678.53;1741538;82;27498;-70
2022/07/21 11:04:16;;;;;;;3.17;1.72;;;;;;;39.23;20.60;100677.91;1649777;87;25578;-70
2022/07/21 11:06:42;;;;;;;4.83;1.75;;;;;;;39.38;20.91;100672.10;1662365;86;25528;-69
2022/07/21 11:09:14;;;;;;;3.65;1.85;;;;;;;39.84;20.79;100673.23;1709155;83;25900;-69
2022/07/21 11:12:00;;;;;;;3.47;1.77;;;;;;;40.21;20.66;100668.84;1677550;85;25641;-69
2022/07/21 11:14:43;;;;;;;4.33;1.77;;;;;;;40.60;20.42;100678.16;1661958;86;27520;-69
2022/07/21 11:17:25;;;;;;;3.22;1.98;;;;;;;40.95;20.48;100669.88;1707199;83;25453;-70
2022/07/21 11:19:52;;;;;;;4.83;1.90;;;;;;;41.08;19.99;100670.14;1702949;83;25641;-71
2022/07/21 11:22:28;;;;;;;2.50;1.62;;;;;;;41.20;19.83;100671.70;1709317;83;25505;-70
2022/07/21 11:25:07;;;;;;;4.37;1.77;;;;;;;41.44;19.59;100662.69;1709413;83;25441;-70
2022/07/21 11:27:36;;;;;;;3.40;1.70;;;;;;;41.47;19.02;100662.96;1709425;83;27659;-69
2022/07/21 11:30:15;;;;;;;5.25;1.80;;;;;;;41.06;18.87;100657.89;1709488;83;25571;-70
2022/07/21 11:32:49;;;;;;;2.77;2.10;;;;;;;40.60;18.91;100653.41;1685834;83;25504;-70
2022/07/21 11:35:17;;;;;;;4.20;1.75;;;;;;;39.99;19.30;100646.84;1709321;83;25652;-70